^^
Station Historical Data
Daily Summary for March 12, 2018 Units:  English    Metric   Both
« Previous Day
Next Day »
Daily Weekly Monthly Yearly Custom
  High: Low: Average:
Temperature: TemperatureF °F 35.8 °F 41.5 °F
Dew Point: DewpointF °F 20.1 °F 34 °F
Humidity: Humidity% 35% 76%
Wind Speed: WindSpeedMPHmph 0.0mph 3.1mph
Wind Gust: WindSpeedGustMPHmph - -
Wind- - SSW
Pressure: PressureIn in 30.09 in -
Precipitation: 0.39 in    
Historical Graphs
 
 
Tabular Data for March 12, 2018
Time Temperature Dew Point Pressure Wind Wind Speed Wind Gust Humidity Rainfall Rate (Hourly)
TemperatureF °F DewpointF °F PressureIn in Calm     Humidity% HourlyPrecipIn in
00:04 43.9 °F 42.3 °F 30.22 in Calm   1.0 mph 94% 0.09 in
00:09 43.9 °F 42.3 °F 30.22 in Calm   3.0 mph 94% 0.09 in
00:19 43.9 °F 42.3 °F 30.22 in WNW 0.9 mph 2.0 mph 94% 0.09 in
00:39 43.7 °F 41.7 °F 30.22 in WSW 2.0 mph 6.0 mph 93% 0.04 in
00:44 43.7 °F 41.7 °F 30.22 in Calm   4.0 mph 93% 0.03 in
00:55 43.7 °F 42.1 °F 30.21 in East 2.0 mph 4.0 mph 94% 0.06 in
01:00 43.5 °F 42.3 °F 30.21 in Calm   2.0 mph 95% 0.07 in
01:05 43.3 °F 42.1 °F 30.20 in Calm   4.0 mph 95% 0.08 in
01:10 43.5 °F 41.9 °F 30.20 in Calm   1.0 mph 94% 0.08 in
01:20 43.5 °F 41.9 °F 30.20 in NNW 0.9 mph 4.0 mph 94% 0.08 in
01:25 43.5 °F 41.9 °F 30.19 in ENE 0.9 mph 4.0 mph 94% 0.08 in
01:35 43.5 °F 41.9 °F 30.19 in NE 4.0 mph 6.0 mph 94% 0.09 in
01:40 43.5 °F 41.9 °F 30.19 in Calm   1.0 mph 94% 0.10 in
01:50 43.5 °F 42.3 °F 30.18 in NE 4.0 mph 4.0 mph 95% 0.08 in
01:55 43.5 °F 41.9 °F 30.18 in ENE 6.0 mph 6.0 mph 94% 0.06 in
02:00 43.5 °F 41.9 °F 30.18 in NNE 2.0 mph 4.0 mph 94% 0.05 in
02:05 43.5 °F 41.9 °F 30.18 in WNW 2.0 mph 2.0 mph 94% 0.05 in
02:10 43.5 °F 41.9 °F 30.17 in WNW 2.0 mph 5.0 mph 94% 0.05 in
02:15 43.5 °F 41.9 °F 30.17 in NE 0.9 mph 4.0 mph 94% 0.05 in
02:20 43.5 °F 41.7 °F 30.17 in NE 4.9 mph 7.0 mph 93% 0.04 in
02:30 43.5 °F 41.7 °F 30.19 in WNW 0.9 mph 1.0 mph 93% 0.04 in
02:35 43.5 °F 41.9 °F 30.19 in Calm   2.0 mph 94% 0.04 in
02:40 43.3 °F 41.7 °F 30.19 in ENE 2.9 mph 3.0 mph 94% 0.05 in
02:55 43.2 °F 42.1 °F 30.19 in SE 0.9 mph 1.0 mph 96% 0.07 in
03:35 43.0 °F 42.3 °F 30.17 in Calm     97% 0.08 in
03:45 42.8 °F 42.1 °F 30.17 in Calm   1.0 mph 97% 0.05 in
03:50 42.6 °F 41.5 °F 30.17 in Calm   1.0 mph 96% 0.05 in
03:55 42.6 °F 41.5 °F 30.17 in Calm   2.0 mph 96% 0.05 in
04:05 42.6 °F 41.5 °F 30.16 in Calm   1.0 mph 96% 0.06 in
04:15 42.4 °F 41.2 °F 30.16 in SSW 2.0 mph 2.0 mph 95% 0.07 in
04:30 42.4 °F 41.4 °F 30.15 in Calm   1.0 mph 96% 0.07 in
04:35 42.4 °F 41.4 °F 30.16 in WNW 0.9 mph 2.0 mph 96% 0.07 in
04:50 42.3 °F 41.5 °F 30.16 in WNW 0.9 mph 1.0 mph 97% 0.08 in
04:55 42.3 °F 41.5 °F 30.16 in Calm     97% 0.09 in
05:00 42.3 °F 41.5 °F 30.15 in Calm   1.0 mph 97% 0.10 in
05:05 42.4 °F 41.4 °F 30.15 in ENE 0.9 mph 3.0 mph 96% 0.10 in
05:11 42.4 °F 41.4 °F 30.15 in West 0.9 mph 2.0 mph 96% 0.09 in
05:16 42.4 °F 41.4 °F 30.14 in Calm     96% 0.09 in
05:21 42.4 °F 41.4 °F 30.14 in Calm   1.0 mph 96% 0.08 in
05:26 42.3 °F 41.2 °F 30.13 in Calm   3.0 mph 96% 0.09 in
05:31 42.3 °F 41.2 °F 30.11 in SE 2.9 mph 7.0 mph 96% 0.09 in
05:36 42.3 °F 41.2 °F 30.11 in NE 2.0 mph 5.0 mph 96% 0.08 in
05:51 42.6 °F 41.4 °F 30.11 in Calm   5.0 mph 95% 0.06 in
05:56 42.4 °F 41.2 °F 30.11 in Calm   1.0 mph 95% 0.05 in
06:01 42.4 °F 41.4 °F 30.11 in SSE 0.9 mph 1.0 mph 96% 0.03 in
06:06 42.3 °F 41.2 °F 30.11 in Calm   1.0 mph 96% 0.02 in
06:11 42.3 °F 41.2 °F 30.11 in Calm   1.0 mph 96% 0.02 in
06:16 42.1 °F 41.0 °F 30.11 in Calm   1.0 mph 96% 0.01 in
06:21 41.9 °F 40.8 °F 30.09 in Calm   1.0 mph 96% 0.01 in
06:26 41.7 °F 41.0 °F 30.09 in WNW 2.0 mph 2.0 mph 97% 0.00 in
06:36 41.7 °F 41.0 °F 30.10 in Calm     97% 0.00 in
06:41 41.5 °F 40.8 °F 30.11 in Calm     97% 0.00 in
06:46 41.5 °F 40.8 °F 30.11 in Calm   1.0 mph 97% 0.00 in
06:51 41.5 °F 40.8 °F 30.11 in Calm     97% 0.00 in
06:56 41.5 °F 41.0 °F 30.10 in Calm     98% 0.00 in
07:01 41.7 °F 41.2 °F 30.11 in Calm   1.0 mph 98% 0.00 in
07:07 41.5 °F 41.0 °F 30.11 in Calm     98% 0.00 in
07:12 41.5 °F 41.0 °F 30.11 in Calm     98% 0.00 in
07:17 41.5 °F 41.0 °F 30.11 in Calm     98% 0.00 in
07:27 42.1 °F 41.5 °F 30.11 in Calm   1.0 mph 98% 0.00 in
07:32 42.3 °F 41.7 °F 30.11 in Calm     98% 0.01 in
07:37 42.3 °F 41.7 °F 30.11 in Calm   1.0 mph 98% 0.01 in
08:07 42.4 °F 41.9 °F 30.12 in ENE 2.0 mph 2.0 mph 98% 0.01 in
08:17 42.4 °F 41.4 °F 30.13 in NE 2.0 mph 2.0 mph 96% 0.01 in
08:22 42.3 °F 41.0 °F 30.13 in East 0.9 mph 3.0 mph 95% 0.01 in
08:57 41.7 °F 40.1 °F 30.14 in ESE 0.9 mph 2.0 mph 94% 0.00 in
09:22 41.0 °F 38.8 °F 30.15 in Calm   1.0 mph 92% 0.00 in
09:27 41.0 °F 38.7 °F 30.15 in Calm   1.0 mph 91% 0.00 in
09:33 40.8 °F 38.1 °F 30.15 in Calm   2.0 mph 90% 0.00 in
09:38 40.8 °F 38.1 °F 30.15 in ENE 2.0 mph 6.0 mph 90% 0.00 in
09:43 40.8 °F 38.1 °F 30.16 in ESE 2.0 mph 2.0 mph 90% 0.00 in
09:48 41.2 °F 38.1 °F 30.16 in Calm   2.0 mph 89% 0.00 in
10:03 41.2 °F 37.6 °F 30.16 in West 2.9 mph 8.0 mph 87% 0.00 in
10:08 40.8 °F 37.2 °F 30.16 in Calm   1.0 mph 87% 0.00 in
10:23 40.8 °F 37.6 °F 30.17 in ENE 0.9 mph 5.0 mph 88% 0.00 in
10:28 41.0 °F 37.4 °F 30.17 in Calm   3.0 mph 87% 0.00 in
10:33 41.2 °F 37.4 °F 30.17 in Calm   2.0 mph 86% 0.00 in
10:48 41.5 °F 36.7 °F 30.17 in Calm   5.0 mph 83% 0.00 in
10:53 41.4 °F 36.5 °F 30.18 in SSE 0.9 mph 3.0 mph 83% 0.00 in
11:03 41.4 °F 36.3 °F 30.18 in East 2.9 mph 6.0 mph 82% 0.00 in
11:18 41.7 °F 35.8 °F 30.19 in Calm   4.0 mph 79% 0.00 in
11:23 42.3 °F 36.0 °F 30.19 in Calm   3.0 mph 78% 0.00 in
11:28 42.1 °F 35.1 °F 30.19 in Calm   4.0 mph 76% 0.00 in
11:33 42.1 °F 35.1 °F 30.20 in East 2.9 mph 8.0 mph 76% 0.00 in
11:38 41.9 °F 35.2 °F 30.20 in SSW 2.0 mph 3.0 mph 77% 0.00 in
11:43 41.5 °F 34.2 °F 30.21 in SSE 6.0 mph 11.0 mph 75% 0.00 in
11:49 41.4 °F 34.3 °F 30.21 in WSW 4.0 mph 6.0 mph 76% 0.00 in
11:54 41.2 °F 34.2 °F 30.22 in WNW 6.0 mph 11.0 mph 76% 0.00 in
12:14 40.3 °F 33.3 °F 30.22 in SE 4.0 mph 18.0 mph 76% 0.00 in
12:24 40.6 °F 33.3 °F 30.23 in WSW 4.0 mph 14.0 mph 75% 0.00 in
12:29 40.6 °F 33.3 °F 30.23 in West 8.1 mph 8.1 mph 75% 0.00 in
12:34 40.8 °F 32.5 °F 30.23 in NW 4.0 mph 12.0 mph 72% 0.00 in
12:44 41.2 °F 32.5 °F 30.23 in SW 6.9 mph 17.0 mph 71% 0.00 in
12:49 41.5 °F 31.8 °F 30.23 in WSW 2.9 mph 12.0 mph 68% 0.00 in
13:04 41.2 °F 31.8 °F 30.23 in SE 2.0 mph 10.0 mph 69% 0.00 in
13:09 42.1 °F 32.0 °F 30.23 in NE 2.0 mph 13.0 mph 67% 0.00 in
13:14 42.6 °F 32.4 °F 30.23 in WNW 4.0 mph 10.0 mph 67% 0.00 in
13:19 43.2 °F 32.5 °F 30.23 in West 2.0 mph 9.0 mph 66% 0.00 in
13:24 43.2 °F 32.5 °F 30.23 in WNW 13.0 mph 17.0 mph 66% 0.00 in
13:29 42.6 °F 31.3 °F 30.23 in WNW 2.0 mph 9.0 mph 64% 0.00 in
13:35 42.8 °F 31.5 °F 30.23 in West 6.9 mph 11.0 mph 64% 0.00 in
13:45 42.3 °F 31.6 °F 30.24 in Calm   10.0 mph 66% 0.00 in
13:50 42.4 °F 32.2 °F 30.23 in WNW 2.9 mph 10.0 mph 67% 0.00 in
13:55 42.1 °F 31.5 °F 30.24 in West 8.1 mph 17.0 mph 66% 0.00 in
14:00 41.7 °F 31.6 °F 30.24 in NW 2.9 mph 10.0 mph 67% 0.00 in
14:15 41.9 °F 31.8 °F 30.23 in SW 6.0 mph 18.0 mph 67% 0.00 in
14:40 44.1 °F 33.4 °F 30.24 in WNW 2.0 mph 23.0 mph 66% 0.00 in
14:45 44.1 °F 33.1 °F 30.24 in North 6.9 mph 17.0 mph 65% 0.00 in
14:55 43.7 °F 33.4 °F 30.25 in NE 8.1 mph 20.0 mph 67% 0.00 in
15:00 43.9 °F 33.3 °F 30.24 in NW 11.0 mph 22.0 mph 66% 0.00 in
15:05 43.7 °F 33.1 °F 30.25 in NE 6.9 mph 7.0 mph 66% 0.00 in
15:10 44.4 °F 34.2 °F 30.25 in WNW 8.9 mph 17.0 mph 67% 0.00 in
15:15 43.3 °F 32.7 °F 30.26 in West 12.1 mph 18.0 mph 66% 0.00 in
15:21 42.6 °F 32.4 °F 30.26 in WNW 13.0 mph 19.0 mph 67% 0.00 in
15:26 42.4 °F 31.8 °F 30.25 in WNW 12.1 mph 14.0 mph 66% 0.00 in
15:36 42.8 °F 32.2 °F 30.26 in NW 6.0 mph 19.0 mph 66% 0.00 in
15:41 43.2 °F 31.1 °F 30.26 in West 13.0 mph 18.0 mph 62% 0.00 in
15:51 43.3 °F 30.4 °F 30.26 in West 4.0 mph 18.0 mph 60% 0.00 in
16:01 44.2 °F 29.5 °F 30.26 in WNW 8.9 mph 12.0 mph 56% 0.00 in
16:16 44.2 °F 26.2 °F 30.27 in West 8.1 mph 22.0 mph 49% 0.00 in
16:26 44.2 °F 24.3 °F 30.28 in SW 8.9 mph 30.0 mph 45% 0.00 in
16:31 44.4 °F 25.0 °F 30.28 in ESE 2.9 mph 19.0 mph 46% 0.00 in
16:36 44.8 °F 25.7 °F 30.29 in West 11.0 mph 13.0 mph 47% 0.00 in
16:41 45.0 °F 25.0 °F 30.29 in West 11.0 mph 19.0 mph 45% 0.00 in
16:46 45.0 °F 24.4 °F 30.29 in WSW 11.0 mph 12.0 mph 44% 0.00 in
17:01 45.9 °F 24.1 °F 30.29 in WSW 2.9 mph 13.0 mph 42% 0.00 in
17:11 46.4 °F 21.6 °F 30.29 in SSW 4.0 mph 14.0 mph 37% 0.00 in
17:21 46.2 °F 20.1 °F 30.29 in ESE 6.9 mph 18.0 mph 35% 0.00 in
17:26 46.2 °F 20.7 °F 30.29 in WSW 11.0 mph 14.0 mph 36% 0.00 in
17:31 45.7 °F 21.6 °F 30.29 in West 6.9 mph 13.0 mph 38% 0.00 in
17:57 45.1 °F 25.5 °F 30.31 in WSW 4.9 mph 19.0 mph 46% 0.00 in
18:02 45.1 °F 25.0 °F 30.32 in WNW 4.0 mph 14.0 mph 45% 0.00 in
18:12 43.3 °F 27.3 °F 30.32 in WSW 8.1 mph 10.0 mph 53% 0.00 in
18:22 41.5 °F 27.0 °F 30.33 in South 2.9 mph 5.0 mph 56% 0.00 in
18:32 41.4 °F 27.3 °F 30.33 in WSW 4.0 mph 6.0 mph 57% 0.00 in
18:37 41.2 °F 27.5 °F 30.33 in WSW 4.9 mph 6.0 mph 58% 0.00 in
18:42 40.8 °F 27.1 °F 30.33 in South 2.9 mph 12.0 mph 58% 0.00 in
18:52 40.6 °F 27.5 °F 30.33 in NE 0.9 mph 6.0 mph 59% 0.00 in
19:22 39.7 °F 25.7 °F 30.33 in Calm   6.0 mph 57% 0.00 in
19:27 39.7 °F 25.7 °F 30.33 in WSW 6.0 mph 10.0 mph 57% 0.00 in
19:37 39.4 °F 25.3 °F 30.33 in SSE 2.9 mph 9.0 mph 57% 0.00 in
19:47 39.0 °F 25.5 °F 30.34 in SW 2.0 mph 4.0 mph 58% 0.00 in
19:57 38.8 °F 25.3 °F 30.34 in WSW 4.0 mph 8.0 mph 58% 0.00 in
20:07 38.7 °F 25.2 °F 30.35 in SE 0.9 mph 8.0 mph 58% 0.00 in
20:12 38.7 °F 26.4 °F 30.35 in WSW 2.9 mph 6.0 mph 61% 0.00 in
20:17 38.5 °F 25.0 °F 30.35 in East 4.0 mph 4.0 mph 58% 0.00 in
20:28 38.7 °F 25.2 °F 30.36 in WSW 2.9 mph 5.0 mph 58% 0.00 in
20:38 38.5 °F 24.6 °F 30.36 in West 4.9 mph 13.0 mph 57% 0.00 in
20:43 38.7 °F 24.3 °F 30.37 in West 10.1 mph 13.0 mph 56% 0.00 in
20:53 38.5 °F 24.6 °F 30.37 in WNW 10.1 mph 11.0 mph 57% 0.00 in
20:58 38.3 °F 23.9 °F 30.37 in SW 0.9 mph 25.0 mph 56% 0.00 in
21:08 38.1 °F 24.3 °F 30.37 in WSW 8.9 mph 9.0 mph 57% 0.00 in
21:28 37.9 °F 24.4 °F 30.38 in SW 2.9 mph 9.0 mph 58% 0.00 in
21:33 37.8 °F 23.9 °F 30.38 in SW 0.9 mph 4.0 mph 57% 0.00 in
21:38 37.6 °F 24.1 °F 30.38 in WNW 2.9 mph 4.0 mph 58% 0.00 in
21:43 37.6 °F 24.6 °F 30.39 in West 2.0 mph 3.0 mph 59% 0.00 in
21:48 37.6 °F 24.1 °F 30.39 in WNW 4.9 mph 12.0 mph 58% 0.00 in
21:58 37.2 °F 24.3 °F 30.40 in WNW 9.0 mph 9.0 mph 59% 0.00 in
22:13 37.0 °F 23.2 °F 30.40 in SW 2.9 mph 7.0 mph 57% 0.00 in
22:18 37.0 °F 23.7 °F 30.40 in NE 2.0 mph 9.0 mph 58% 0.00 in
22:28 36.9 °F 23.0 °F 30.40 in NW 4.0 mph 13.0 mph 57% 0.00 in
22:38 36.9 °F 23.5 °F 30.40 in SW 4.0 mph 8.0 mph 58% 0.00 in
22:48 36.9 °F 23.0 °F 30.40 in SSE 2.9 mph 11.0 mph 57% 0.00 in
23:09 36.9 °F 23.9 °F 30.40 in Calm   3.0 mph 59% 0.00 in
23:19 36.7 °F 23.7 °F 30.40 in West 6.0 mph 13.0 mph 59% 0.00 in
23:29 36.5 °F 23.5 °F 30.40 in SSW 2.9 mph 6.0 mph 59% 0.00 in
23:34 36.3 °F 23.0 °F 30.40 in WNW 6.9 mph 14.0 mph 58% 0.00 in
23:54 36.0 °F 22.3 °F 30.42 in West 4.9 mph 7.0 mph 57% 0.00 in
23:59 35.8 °F 22.1 °F 30.42 in SE 2.0 mph 5.0 mph 57% 0.00 in
WheeWeather.com
Compliments of Weather Underground - 2 mb